sensor_id;sensor_type;location;lat;lon;timestamp;pressure;altitude;pressure_sealevel;temperature;humidity
7802;BME280;3945;48.952;9.506;2023-02-22T00:02:02;97858.75;;;5.59;86.09
7802;BME280;3945;48.952;9.506;2023-02-22T00:04:49;97860.19;;;5.55;85.94
7802;BME280;3945;48.952;9.506;2023-02-22T00:07:15;97864.28;;;5.51;85.70
7802;BME280;3945;48.952;9.506;2023-02-22T00:09:41;97868.38;;;5.47;85.89
7802;BME280;3945;48.952;9.506;2023-02-22T00:12:08;97860.84;;;5.44;85.67
7802;BME280;3945;48.952;9.506;2023-02-22T00:14:34;97862.88;;;5.42;85.99
7802;BME280;3945;48.952;9.506;2023-02-22T00:17:00;97859.06;;;5.38;85.93
7802;BME280;3945;48.952;9.506;2023-02-22T00:19:28;97861.28;;;5.34;86.17
7802;BME280;3945;48.952;9.506;2023-02-22T00:21:54;97857.25;;;5.32;86.11
7802;BME280;3945;48.952;9.506;2023-02-22T00:24:22;97861.50;;;5.26;86.26
7802;BME280;3945;48.952;9.506;2023-02-22T00:26:49;97867.84;;;5.25;86.04
7802;BME280;3945;48.952;9.506;2023-02-22T00:29:15;97861.34;;;5.21;86.36
7802;BME280;3945;48.952;9.506;2023-02-22T00:31:41;97856.50;;;5.18;86.28
7802;BME280;3945;48.952;9.506;2023-02-22T00:34:08;97861.56;;;5.13;86.05
7802;BME280;3945;48.952;9.506;2023-02-22T00:36:36;97854.47;;;5.07;86.36
7802;BME280;3945;48.952;9.506;2023-02-22T00:39:02;97855.94;;;4.96;87.08
7802;BME280;3945;48.952;9.506;2023-02-22T00:41:28;97862.22;;;4.95;87.94
7802;BME280;3945;48.952;9.506;2023-02-22T00:43:55;97849.44;;;4.92;88.02
7802;BME280;3945;48.952;9.506;2023-02-22T00:46:21;97848.47;;;4.87;87.99
7802;BME280;3945;48.952;9.506;2023-02-22T00:48:48;97846.03;;;4.85;88.49
7802;BME280;3945;48.952;9.506;2023-02-22T00:51:14;97850.09;;;4.88;88.96
7802;BME280;3945;48.952;9.506;2023-02-22T00:53:42;97847.66;;;4.86;89.33
7802;BME280;3945;48.952;9.506;2023-02-22T00:56:09;97842.56;;;4.85;89.41
7802;BME280;3945;48.952;9.506;2023-02-22T00:58:35;97845.63;;;4.88;89.56
7802;BME280;3945;48.952;9.506;2023-02-22T01:01:02;97845.19;;;4.91;89.21
7802;BME280;3945;48.952;9.506;2023-02-22T01:03:28;97846.81;;;4.92;89.19
7802;BME280;3945;48.952;9.506;2023-02-22T01:05:56;97835.47;;;4.92;89.19
7802;BME280;3945;48.952;9.506;2023-02-22T01:08:22;97839.53;;;4.88;88.99
7802;BME280;3945;48.952;9.506;2023-02-22T01:10:50;97827.59;;;4.72;89.33
7802;BME280;3945;48.952;9.506;2023-02-22T01:13:17;97817.91;;;4.59;89.37
7802;BME280;3945;48.952;9.506;2023-02-22T01:15:44;97828.03;;;4.56;90.15
7802;BME280;3945;48.952;9.506;2023-02-22T01:18:11;97829.66;;;4.57;91.13
7802;BME280;3945;48.952;9.506;2023-02-22T01:20:41;97815.88;;;4.55;90.73
7802;BME280;3945;48.952;9.506;2023-02-22T01:23:12;97816.69;;;4.55;91.19
7802;BME280;3945;48.952;9.506;2023-02-22T01:25:38;97816.09;;;4.60;91.92
7802;BME280;3945;48.952;9.506;2023-02-22T01:28:06;97814.63;;;4.64;91.53
7802;BME280;3945;48.952;9.506;2023-02-22T01:30:33;97818.69;;;4.66;91.73
7802;BME280;3945;48.952;9.506;2023-02-22T01:33:00;97816.88;;;4.67;91.48
7802;BME280;3945;48.952;9.506;2023-02-22T01:35:27;97810.38;;;4.69;91.63
7802;BME280;3945;48.952;9.506;2023-02-22T01:37:54;97818.28;;;4.69;91.35
7802;BME280;3945;48.952;9.506;2023-02-22T01:40:22;97816.06;;;4.66;91.26
7802;BME280;3945;48.952;9.506;2023-02-22T01:42:50;97806.94;;;4.62;91.53
7802;BME280;3945;48.952;9.506;2023-02-22T01:48:03;97799.06;;;4.49;91.28
7802;BME280;3945;48.952;9.506;2023-02-22T01:50:32;97799.88;;;4.43;91.65
7802;BME280;3945;48.952;9.506;2023-02-22T01:52:59;97786.72;;;4.37;92.71
7802;BME280;3945;48.952;9.506;2023-02-22T01:55:26;97791.38;;;4.35;93.76
7802;BME280;3945;48.952;9.506;2023-02-22T01:57:53;97783.66;;;4.40;94.53
7802;BME280;3945;48.952;9.506;2023-02-22T02:00:19;97786.28;;;4.40;94.48
7802;BME280;3945;48.952;9.506;2023-02-22T02:02:51;97784.47;;;4.40;95.04
7802;BME280;3945;48.952;9.506;2023-02-22T02:05:24;97765.84;;;4.42;95.28
7802;BME280;3945;48.952;9.506;2023-02-22T02:07:51;97771.50;;;4.45;95.21
7802;BME280;3945;48.952;9.506;2023-02-22T02:10:17;97776.34;;;4.48;94.77
7802;BME280;3945;48.952;9.506;2023-02-22T02:12:44;97786.69;;;4.50;94.60
7802;BME280;3945;48.952;9.506;2023-02-22T02:15:15;97781.03;;;4.46;93.68
7802;BME280;3945;48.952;9.506;2023-02-22T02:17:42;97780.44;;;4.44;93.02
7802;BME280;3945;48.952;9.506;2023-02-22T02:20:09;97777.38;;;4.41;92.97
7802;BME280;3945;48.952;9.506;2023-02-22T02:22:42;97775.75;;;4.40;92.82
7802;BME280;3945;48.952;9.506;2023-02-22T02:25:23;97770.09;;;4.36;92.53
7802;BME280;3945;48.952;9.506;2023-02-22T02:28:00;97764.63;;;4.38;92.44
7802;BME280;3945;48.952;9.506;2023-02-22T02:30:38;97765.22;;;4.40;92.64
7802;BME280;3945;48.952;9.506;2023-02-22T02:33:12;97763.63;;;4.39;92.74
7802;BME280;3945;48.952;9.506;2023-02-22T02:35:46;97756.75;;;4.38;92.27
7802;BME280;3945;48.952;9.506;2023-02-22T02:38:16;97752.28;;;4.38;92.26
7802;BME280;3945;48.952;9.506;2023-02-22T02:40:47;97756.94;;;4.36;91.77
7802;BME280;3945;48.952;9.506;2023-02-22T02:43:16;97750.84;;;4.36;91.64
7802;BME280;3945;48.952;9.506;2023-02-22T02:45:46;97749.03;;;4.36;92.29
7802;BME280;3945;48.952;9.506;2023-02-22T02:48:15;97743.59;;;4.31;91.89
7802;BME280;3945;48.952;9.506;2023-02-22T02:50:45;97741.34;;;4.28;92.00
7802;BME280;3945;48.952;9.506;2023-02-22T02:53:13;97735.06;;;4.29;91.99
7802;BME280;3945;48.952;9.506;2023-02-22T02:55:41;97731.81;;;4.27;91.62
7802;BME280;3945;48.952;9.506;2023-02-22T02:58:07;97729.81;;;4.22;91.26
7802;BME280;3945;48.952;9.506;2023-02-22T03:00:35;97731.44;;;4.23;91.58
7802;BME280;3945;48.952;9.506;2023-02-22T03:05:59;97730.22;;;4.19;90.87
7802;BME280;3945;48.952;9.506;2023-02-22T03:08:33;97725.75;;;4.20;91.08
7802;BME280;3945;48.952;9.506;2023-02-22T03:11:04;97729.00;;;4.22;90.26
7802;BME280;3945;48.952;9.506;2023-02-22T03:13:39;97725.16;;;4.18;90.39
7802;BME280;3945;48.952;9.506;2023-02-22T03:16:10;97723.13;;;4.13;90.36
7802;BME280;3945;48.952;9.506;2023-02-22T03:18:42;97723.75;;;4.09;90.34
7802;BME280;3945;48.952;9.506;2023-02-22T03:21:16;97724.34;;;4.04;89.65
7802;BME280;3945;48.952;9.506;2023-02-22T03:23:46;97717.50;;;4.03;90.26
7802;BME280;3945;48.952;9.506;2023-02-22T03:26:18;97721.53;;;3.99;89.74
7802;BME280;3945;48.952;9.506;2023-02-22T03:28:48;97706.16;;;3.96;90.40
7802;BME280;3945;48.952;9.506;2023-02-22T03:31:18;97711.63;;;3.95;90.15
7802;BME280;3945;48.952;9.506;2023-02-22T03:33:46;97706.16;;;3.96;90.47
7802;BME280;3945;48.952;9.506;2023-02-22T03:36:14;97708.78;;;3.96;90.44
7802;BME280;3945;48.952;9.506;2023-02-22T03:38:44;97707.97;;;3.96;91.02
7802;BME280;3945;48.952;9.506;2023-02-22T03:41:12;97700.09;;;3.96;90.99
7802;BME280;3945;48.952;9.506;2023-02-22T03:43:41;97705.13;;;3.97;90.72
7802;BME280;3945;48.952;9.506;2023-02-22T03:46:08;97705.75;;;3.99;90.53
7802;BME280;3945;48.952;9.506;2023-02-22T03:48:37;97703.31;;;3.98;91.23
7802;BME280;3945;48.952;9.506;2023-02-22T03:51:04;97703.53;;;3.96;91.35
7802;BME280;3945;48.952;9.506;2023-02-22T03:53:31;97707.97;;;3.96;91.63
7802;BME280;3945;48.952;9.506;2023-02-22T03:56:02;97708.78;;;3.96;91.54
7802;BME280;3945;48.952;9.506;2023-02-22T03:58:31;97703.31;;;3.98;91.75
7802;BME280;3945;48.952;9.506;2023-02-22T04:00:59;97703.72;;;3.95;91.85
7802;BME280;3945;48.952;9.506;2023-02-22T04:03:26;97704.75;;;3.93;92.75
7802;BME280;3945;48.952;9.506;2023-02-22T04:05:52;97694.41;;;3.92;93.23
7802;BME280;3945;48.952;9.506;2023-02-22T04:08:18;97702.91;;;3.94;93.28
7802;BME280;3945;48.952;9.506;2023-02-22T04:10:45;97703.72;;;3.95;94.01
7802;BME280;3945;48.952;9.506;2023-02-22T04:13:12;97701.91;;;3.95;93.05
7802;BME280;3945;48.952;9.506;2023-02-22T04:15:39;97706.16;;;3.96;93.32
7802;BME280;3945;48.952;9.506;2023-02-22T04:18:05;97705.94;;;3.98;93.87
7802;BME280;3945;48.952;9.506;2023-02-22T04:20:32;97704.72;;;4.00;93.67
7802;BME280;3945;48.952;9.506;2023-02-22T04:22:59;97696.03;;;4.00;93.38
7802;BME280;3945;48.952;9.506;2023-02-22T04:25:25;97695.63;;;3.96;93.72
7802;BME280;3945;48.952;9.506;2023-02-22T04:27:52;97695.84;;;3.95;94.24
7802;BME280;3945;48.952;9.506;2023-02-22T04:30:19;97698.47;;;3.95;93.93
7802;BME280;3945;48.952;9.506;2023-02-22T04:32:46;97690.56;;;3.95;94.66
7802;BME280;3945;48.952;9.506;2023-02-22T04:35:12;97686.50;;;3.99;93.92
7802;BME280;3945;48.952;9.506;2023-02-22T04:37:39;97685.69;;;3.98;93.92
7802;BME280;3945;48.952;9.506;2023-02-22T04:40:06;97684.50;;;3.94;94.11
7802;BME280;3945;48.952;9.506;2023-02-22T04:42:32;97687.13;;;3.94;94.08
7802;BME280;3945;48.952;9.506;2023-02-22T04:44:59;97682.25;;;3.91;94.46
7802;BME280;3945;48.952;9.506;2023-02-22T04:47:26;97679.03;;;3.89;94.39
7802;BME280;3945;48.952;9.506;2023-02-22T04:49:53;97683.50;;;3.88;94.35
7802;BME280;3945;48.952;9.506;2023-02-22T04:52:20;97678.22;;;3.88;94.19
7802;BME280;3945;48.952;9.506;2023-02-22T04:54:46;97688.16;;;3.86;94.13
7802;BME280;3945;48.952;9.506;2023-02-22T04:57:12;97679.25;;;3.87;93.40
7802;BME280;3945;48.952;9.506;2023-02-22T04:59:39;97682.25;;;3.84;93.40
7802;BME280;3945;48.952;9.506;2023-02-22T05:02:05;97681.66;;;3.82;93.41
7802;BME280;3945;48.952;9.506;2023-02-22T05:04:33;97681.06;;;3.80;93.22
7802;BME280;3945;48.952;9.506;2023-02-22T05:07:00;97674.78;;;3.81;93.12
7802;BME280;3945;48.952;9.506;2023-02-22T05:09:26;97679.25;;;3.81;93.91
7802;BME280;3945;48.952;9.506;2023-02-22T05:11:53;97675.81;;;3.80;93.22
7802;BME280;3945;48.952;9.506;2023-02-22T05:14:19;97672.34;;;3.80;92.98
7802;BME280;3945;48.952;9.506;2023-02-22T05:16:46;97670.53;;;3.80;93.68
7802;BME280;3945;48.952;9.506;2023-02-22T05:19:13;97663.03;;;3.77;93.55
7802;BME280;3945;48.952;9.506;2023-02-22T05:21:41;97662.03;;;3.72;93.51
7802;BME280;3945;48.952;9.506;2023-02-22T05:24:07;97662.84;;;3.72;93.43
7802;BME280;3945;48.952;9.506;2023-02-22T05:26:33;97661.03;;;3.66;93.24
7802;BME280;3945;48.952;9.506;2023-02-22T05:28:59;97656.38;;;3.62;93.27
7802;BME280;3945;48.952;9.506;2023-02-22T05:31:26;97659.22;;;3.60;93.35
7802;BME280;3945;48.952;9.506;2023-02-22T05:33:52;97653.75;;;3.62;92.78
7802;BME280;3945;48.952;9.506;2023-02-22T05:36:18;97660.63;;;3.63;92.30
7802;BME280;3945;48.952;9.506;2023-02-22T05:38:46;97653.53;;;3.63;92.95
7802;BME280;3945;48.952;9.506;2023-02-22T05:41:13;97655.56;;;3.61;92.18
7802;BME280;3945;48.952;9.506;2023-02-22T05:43:39;97645.66;;;3.57;92.35
7802;BME280;3945;48.952;9.506;2023-02-22T05:46:06;97649.50;;;3.54;92.09
7802;BME280;3945;48.952;9.506;2023-02-22T05:48:32;97649.72;;;3.52;92.64
7802;BME280;3945;48.952;9.506;2023-02-22T05:50:59;97647.88;;;3.53;92.06
7802;BME280;3945;48.952;9.506;2023-02-22T05:53:25;97650.72;;;3.51;92.30
7802;BME280;3945;48.952;9.506;2023-02-22T05:55:53;97643.03;;;3.50;91.90
7802;BME280;3945;48.952;9.506;2023-02-22T05:58:19;97644.84;;;3.49;92.03
7802;BME280;3945;48.952;9.506;2023-02-22T06:00:46;97650.09;;;3.49;91.90
7802;BME280;3945;48.952;9.506;2023-02-22T06:03:12;97652.13;;;3.47;92.71
7802;BME280;3945;48.952;9.506;2023-02-22T06:05:39;97653.75;;;3.48;91.86
7802;BME280;3945;48.952;9.506;2023-02-22T06:08:05;97650.91;;;3.43;92.50
7802;BME280;3945;48.952;9.506;2023-02-22T06:10:32;97649.09;;;3.44;92.06
7802;BME280;3945;48.952;9.506;2023-02-22T06:13:00;97648.50;;;3.42;92.83
7802;BME280;3945;48.952;9.506;2023-02-22T06:15:27;97649.09;;;3.44;92.39
7802;BME280;3945;48.952;9.506;2023-02-22T06:17:54;97653.56;;;3.43;92.86
7802;BME280;3945;48.952;9.506;2023-02-22T06:20:22;97650.91;;;3.43;92.34
7802;BME280;3945;48.952;9.506;2023-02-22T06:22:49;97639.41;;;3.44;92.22
7802;BME280;3945;48.952;9.506;2023-02-22T06:25:17;97652.94;;;3.48;92.22
7802;BME280;3945;48.952;9.506;2023-02-22T06:27:43;97650.09;;;3.49;92.22
7802;BME280;3945;48.952;9.506;2023-02-22T06:30:12;97649.72;;;3.52;92.54
7802;BME280;3945;48.952;9.506;2023-02-22T06:32:38;97667.91;;;3.54;92.53
7802;BME280;3945;48.952;9.506;2023-02-22T06:35:05;97665.06;;;3.56;93.11
7802;BME280;3945;48.952;9.506;2023-02-22T06:37:32;97666.50;;;3.58;93.21
7802;BME280;3945;48.952;9.506;2023-02-22T06:39:58;97661.44;;;3.57;92.77
7802;BME280;3945;48.952;9.506;2023-02-22T06:42:24;97672.78;;;3.57;92.08
7802;BME280;3945;48.952;9.506;2023-02-22T06:44:51;97662.63;;;3.54;91.99
7802;BME280;3945;48.952;9.506;2023-02-22T06:47:18;97666.50;;;3.51;92.67
7802;BME280;3945;48.952;9.506;2023-02-22T06:49:50;97666.28;;;3.53;92.53
7802;BME280;3945;48.952;9.506;2023-02-22T06:52:17;97670.16;;;3.50;92.86
7802;BME280;3945;48.952;9.506;2023-02-22T06:54:43;97679.84;;;3.50;92.24
7802;BME280;3945;48.952;9.506;2023-02-22T06:57:09;97682.28;;;3.51;93.01
7802;BME280;3945;48.952;9.506;2023-02-22T06:59:36;97679.84;;;3.50;92.53
7802;BME280;3945;48.952;9.506;2023-02-22T07:02:02;97683.28;;;3.50;93.21
7802;BME280;3945;48.952;9.506;2023-02-22T07:04:30;97678.44;;;3.54;92.80
7802;BME280;3945;48.952;9.506;2023-02-22T07:06:56;97679.22;;;3.54;92.80
7802;BME280;3945;48.952;9.506;2023-02-22T07:09:23;97688.75;;;3.56;93.20
7802;BME280;3945;48.952;9.506;2023-02-22T07:11:49;97687.53;;;3.58;92.25
7802;BME280;3945;48.952;9.506;2023-02-22T07:14:16;97685.31;;;3.55;92.23
7802;BME280;3945;48.952;9.506;2023-02-22T07:16:42;97682.28;;;3.58;92.91
7802;BME280;3945;48.952;9.506;2023-02-22T07:19:08;97686.31;;;3.61;92.38
7802;BME280;3945;48.952;9.506;2023-02-22T07:21:36;97685.31;;;3.62;92.81
7802;BME280;3945;48.952;9.506;2023-02-22T07:24:03;97686.53;;;3.66;92.99
7802;BME280;3945;48.952;9.506;2023-02-22T07:26:29;97692.81;;;3.71;92.81
7802;BME280;3945;48.952;9.506;2023-02-22T07:28:56;97692.81;;;3.71;92.31
7802;BME280;3945;48.952;9.506;2023-02-22T07:31:22;97698.69;;;3.73;92.04
7802;BME280;3945;48.952;9.506;2023-02-22T07:33:48;97687.72;;;3.76;92.04
7802;BME280;3945;48.952;9.506;2023-02-22T07:36:15;97695.22;;;3.86;91.12
7802;BME280;3945;48.952;9.506;2023-02-22T07:38:43;97698.47;;;3.95;91.11
7802;BME280;3945;48.952;9.506;2023-02-22T07:41:10;97695.41;;;4.04;91.24
7802;BME280;3945;48.952;9.506;2023-02-22T07:43:36;97698.59;;;4.26;91.53
7802;BME280;3945;48.952;9.506;2023-02-22T07:46:03;97692.25;;;4.47;90.94
7802;BME280;3945;48.952;9.506;2023-02-22T07:48:29;97703.13;;;4.70;91.62
7802;BME280;3945;48.952;9.506;2023-02-22T07:50:56;97704.84;;;4.96;91.50
7802;BME280;3945;48.952;9.506;2023-02-22T07:53:24;97701.47;;;5.20;90.77
7802;BME280;3945;48.952;9.506;2023-02-22T07:55:52;97697.25;;;5.44;89.90
7802;BME280;3945;48.952;9.506;2023-02-22T07:58:20;97700.94;;;5.68;88.37
7802;BME280;3945;48.952;9.506;2023-02-22T08:00:47;97696.13;;;5.90;87.15
7802;BME280;3945;48.952;9.506;2023-02-22T08:03:14;97693.97;;;6.05;86.66
7802;BME280;3945;48.952;9.506;2023-02-22T08:05:41;97696.75;;;6.28;86.61
7802;BME280;3945;48.952;9.506;2023-02-22T08:08:08;97697.31;;;6.55;87.26
7802;BME280;3945;48.952;9.506;2023-02-22T08:10:34;97688.63;;;6.84;85.82
7802;BME280;3945;48.952;9.506;2023-02-22T08:13:03;97684.13;;;7.15;85.42
7802;BME280;3945;48.952;9.506;2023-02-22T08:15:30;97693.91;;;7.44;83.67
7802;BME280;3945;48.952;9.506;2023-02-22T08:17:57;97687.63;;;7.68;83.00
7802;BME280;3945;48.952;9.506;2023-02-22T08:20:25;97685.25;;;7.90;82.84
7802;BME280;3945;48.952;9.506;2023-02-22T08:22:51;97682.47;;;8.08;82.36
7802;BME280;3945;48.952;9.506;2023-02-22T08:25:18;97682.59;;;8.25;81.73
7802;BME280;3945;48.952;9.506;2023-02-22T08:27:45;97687.09;;;8.36;80.34
7802;BME280;3945;48.952;9.506;2023-02-22T08:30:14;97694.69;;;8.44;79.70
7802;BME280;3945;48.952;9.506;2023-02-22T08:32:41;97694.69;;;8.44;78.66
7802;BME280;3945;48.952;9.506;2023-02-22T08:35:07;97697.81;;;8.41;79.37
7802;BME280;3945;48.952;9.506;2023-02-22T08:37:34;97694.59;;;8.39;79.92
7802;BME280;3945;48.952;9.506;2023-02-22T08:40:00;97691.50;;;8.42;80.19
7802;BME280;3945;48.952;9.506;2023-02-22T08:42:26;97697.81;;;8.41;80.45
7802;BME280;3945;48.952;9.506;2023-02-22T08:44:53;97698.38;;;8.43;81.21
7802;BME280;3945;48.952;9.506;2023-02-22T08:47:20;97690.41;;;8.43;80.78
7802;BME280;3945;48.952;9.506;2023-02-22T08:49:47;97691.59;;;8.47;81.13
7802;BME280;3945;48.952;9.506;2023-02-22T08:52:13;97696.88;;;8.47;82.29
7802;BME280;3945;48.952;9.506;2023-02-22T08:54:40;97683.28;;;8.55;82.03
7802;BME280;3945;48.952;9.506;2023-02-22T08:57:06;97686.47;;;8.69;82.10
7802;BME280;3945;48.952;9.506;2023-02-22T08:59:33;97683.91;;;8.86;81.71
7802;BME280;3945;48.952;9.506;2023-02-22T09:01:59;97677.34;;;9.05;82.25
7802;BME280;3945;48.952;9.506;2023-02-22T09:04:28;97683.63;;;9.27;82.96
7802;BME280;3945;48.952;9.506;2023-02-22T09:06:54;97686.94;;;9.51;81.96
7802;BME280;3945;48.952;9.506;2023-02-22T09:09:20;97682.22;;;9.70;81.51
7802;BME280;3945;48.952;9.506;2023-02-22T09:11:47;97677.47;;;9.89;80.66
7802;BME280;3945;48.952;9.506;2023-02-22T09:14:14;97674.97;;;9.99;79.62
7802;BME280;3945;48.952;9.506;2023-02-22T09:16:41;97672.63;;;10.19;78.10
7802;BME280;3945;48.952;9.506;2023-02-22T09:19:07;97673.41;;;10.36;78.84
7802;BME280;3945;48.952;9.506;2023-02-22T09:21:35;97669.28;;;10.45;79.21
7802;BME280;3945;48.952;9.506;2023-02-22T09:24:01;97669.72;;;10.59;78.26
7802;BME280;3945;48.952;9.506;2023-02-22T09:26:32;97665.47;;;10.80;76.04
7802;BME280;3945;48.952;9.506;2023-02-22T09:28:58;97666.75;;;10.99;75.55
7802;BME280;3945;48.952;9.506;2023-02-22T09:31:25;97673.69;;;11.27;73.87
7802;BME280;3945;48.952;9.506;2023-02-22T09:33:51;97668.63;;;11.52;73.03
7802;BME280;3945;48.952;9.506;2023-02-22T09:36:17;97666.38;;;11.71;73.99
7802;BME280;3945;48.952;9.506;2023-02-22T09:38:47;97669.75;;;11.88;74.12
7802;BME280;3945;48.952;9.506;2023-02-22T09:41:15;97676.53;;;12.06;72.88
7802;BME280;3945;48.952;9.506;2023-02-22T09:43:44;97664.59;;;12.19;69.88
7802;BME280;3945;48.952;9.506;2023-02-22T09:46:17;97665.25;;;12.36;69.72
7802;BME280;3945;48.952;9.506;2023-02-22T09:48:50;97666.09;;;12.46;68.13
7802;BME280;3945;48.952;9.506;2023-02-22T09:51:22;97670.72;;;12.61;67.94
7802;BME280;3945;48.952;9.506;2023-02-22T09:53:53;97669.72;;;12.77;69.64
7802;BME280;3945;48.952;9.506;2023-02-22T09:56:20;97665.53;;;12.97;67.89
7802;BME280;3945;48.952;9.506;2023-02-22T09:58:48;97667.25;;;13.28;66.86
7802;BME280;3945;48.952;9.506;2023-02-22T10:01:18;97670.50;;;13.50;65.69
7802;BME280;3945;48.952;9.506;2023-02-22T10:03:49;97667.84;;;13.65;65.00
7802;BME280;3945;48.952;9.506;2023-02-22T10:06:16;97663.56;;;13.75;63.18
7802;BME280;3945;48.952;9.506;2023-02-22T10:08:45;97668.91;;;13.85;63.43
7802;BME280;3945;48.952;9.506;2023-02-22T10:11:15;97667.28;;;13.99;63.86
7802;BME280;3945;48.952;9.506;2023-02-22T10:13:47;97664.63;;;14.09;63.08
7802;BME280;3945;48.952;9.506;2023-02-22T10:16:16;97661.91;;;14.24;62.01
7802;BME280;3945;48.952;9.506;2023-02-22T10:18:56;97660.56;;;14.42;61.90
7802;BME280;3945;48.952;9.506;2023-02-22T10:21:29;97666.13;;;14.66;60.36
7802;BME280;3945;48.952;9.506;2023-02-22T10:24:02;97657.75;;;14.82;59.96
7802;BME280;3945;48.952;9.506;2023-02-22T10:26:33;97657.09;;;15.06;58.67
7802;BME280;3945;48.952;9.506;2023-02-22T10:29:02;97654.09;;;15.17;58.18
7802;BME280;3945;48.952;9.506;2023-02-22T10:31:30;97654.75;;;15.43;56.36
7802;BME280;3945;48.952;9.506;2023-02-22T10:33:58;97651.38;;;15.67;55.69
7802;BME280;3945;48.952;9.506;2023-02-22T10:36:26;97645.91;;;15.82;56.17
7802;BME280;3945;48.952;9.506;2023-02-22T10:38:55;97653.16;;;15.81;56.42
7802;BME280;3945;48.952;9.506;2023-02-22T10:41:27;97643.75;;;15.84;55.11
7802;BME280;3945;48.952;9.506;2023-02-22T10:43:56;97644.50;;;15.89;55.73
7802;BME280;3945;48.952;9.506;2023-02-22T10:46:23;97634.00;;;15.93;55.68
7802;BME280;3945;48.952;9.506;2023-02-22T10:48:53;97642.81;;;15.98;55.31
7802;BME280;3945;48.952;9.506;2023-02-22T10:51:20;97638.09;;;16.14;56.23
7802;BME280;3945;48.952;9.506;2023-02-22T10:53:52;97636.63;;;16.27;56.41
7802;BME280;3945;48.952;9.506;2023-02-22T10:56:21;97637.25;;;16.42;53.69
7802;BME280;3945;48.952;9.506;2023-02-22T10:58:52;97631.31;;;16.46;53.07
7802;BME280;3945;48.952;9.506;2023-02-22T11:01:24;97634.81;;;16.46;53.59
7802;BME280;3945;48.952;9.506;2023-02-22T11:04:00;97626.13;;;16.54;54.67
7802;BME280;3945;48.952;9.506;2023-02-22T11:06:29;97619.41;;;16.57;53.19
7802;BME280;3945;48.952;9.506;2023-02-22T11:09:07;97620.16;;;16.62;53.62
7802;BME280;3945;48.952;9.506;2023-02-22T11:11:36;97613.00;;;16.76;54.44
7802;BME280;3945;48.952;9.506;2023-02-22T11:14:03;97608.78;;;16.89;53.20
7802;BME280;3945;48.952;9.506;2023-02-22T11:16:33;97610.59;;;16.94;53.70
7802;BME280;3945;48.952;9.506;2023-02-22T11:19:01;97608.34;;;17.01;52.82
7802;BME280;3945;48.952;9.506;2023-02-22T11:21:28;97606.91;;;17.08;53.75
7802;BME280;3945;48.952;9.506;2023-02-22T11:24:00;97602.28;;;17.14;52.91
7802;BME280;3945;48.952;9.506;2023-02-22T11:26:26;97606.84;;;17.13;53.02
7802;BME280;3945;48.952;9.506;2023-02-22T11:28:53;97598.56;;;17.10;53.51
7802;BME280;3945;48.952;9.506;2023-02-22T11:31:20;97592.38;;;17.09;53.75
7802;BME280;3945;48.952;9.506;2023-02-22T11:33:50;97591.66;;;17.04;54.34
7802;BME280;3945;48.952;9.506;2023-02-22T11:36:32;97590.13;;;16.98;55.29
7802;BME280;3945;48.952;9.506;2023-02-22T11:39:01;97585.13;;;16.91;55.12
7802;BME280;3945;48.952;9.506;2023-02-22T11:41:30;97583.59;;;16.85;55.69
7802;BME280;3945;48.952;9.506;2023-02-22T11:44:11;97583.91;;;16.78;56.28
7802;BME280;3945;48.952;9.506;2023-02-22T11:46:38;97581.38;;;16.68;55.04
7802;BME280;3945;48.952;9.506;2023-02-22T11:49:07;97575.59;;;16.56;56.15
7802;BME280;3945;48.952;9.506;2023-02-22T11:51:37;97579.66;;;16.54;56.71
7802;BME280;3945;48.952;9.506;2023-02-22T11:54:15;97572.06;;;16.61;56.08
7802;BME280;3945;48.952;9.506;2023-02-22T11:56:53;97571.72;;;16.67;55.10
7802;BME280;3945;48.952;9.506;2023-02-22T11:59:24;97575.66;;;16.75;54.94
7802;BME280;3945;48.952;9.506;2023-02-22T12:01:52;97572.69;;;16.76;55.04
7802;BME280;3945;48.952;9.506;2023-02-22T12:04:29;97564.66;;;16.71;55.03
7802;BME280;3945;48.952;9.506;2023-02-22T12:07:05;97571.00;;;16.62;55.73
7802;BME280;3945;48.952;9.506;2023-02-22T12:09:40;97558.38;;;16.57;55.94
7802;BME280;3945;48.952;9.506;2023-02-22T12:12:12;97568.91;;;16.54;54.49
7802;BME280;3945;48.952;9.506;2023-02-22T12:14:46;97559.97;;;16.58;54.47
7802;BME280;3945;48.952;9.506;2023-02-22T12:17:21;97554.44;;;16.73;54.29
7802;BME280;3945;48.952;9.506;2023-02-22T12:19:52;97554.47;;;16.92;53.24
7802;BME280;3945;48.952;9.506;2023-02-22T12:22:21;97547.13;;;16.98;52.99
7802;BME280;3945;48.952;9.506;2023-02-22T12:24:51;97546.25;;;17.02;50.25
7802;BME280;3945;48.952;9.506;2023-02-22T12:27:21;97547.31;;;17.01;50.18
7802;BME280;3945;48.952;9.506;2023-02-22T12:29:51;97540.16;;;16.97;49.55
7802;BME280;3945;48.952;9.506;2023-02-22T12:32:23;97540.06;;;17.02;49.74
7802;BME280;3945;48.952;9.506;2023-02-22T12:34:55;97539.56;;;17.00;51.13
7802;BME280;3945;48.952;9.506;2023-02-22T12:37:24;97538.81;;;16.94;50.17
7802;BME280;3945;48.952;9.506;2023-02-22T12:39:53;97540.78;;;16.89;50.57
7802;BME280;3945;48.952;9.506;2023-02-22T12:42:23;97539.84;;;16.79;50.87
7802;BME280;3945;48.952;9.506;2023-02-22T12:44:53;97531.66;;;16.71;51.98
7802;BME280;3945;48.952;9.506;2023-02-22T12:47:23;97534.66;;;16.64;51.33
7802;BME280;3945;48.952;9.506;2023-02-22T12:49:57;97531.13;;;16.45;52.29
7802;BME280;3945;48.952;9.506;2023-02-22T12:52:31;97528.00;;;16.38;53.05
7802;BME280;3945;48.952;9.506;2023-02-22T12:55:00;97535.44;;;16.22;53.22
7802;BME280;3945;48.952;9.506;2023-02-22T12:57:33;97530.41;;;16.16;53.77
7802;BME280;3945;48.952;9.506;2023-02-22T13:00:01;97529.97;;;16.09;53.72
7802;BME280;3945;48.952;9.506;2023-02-22T13:02:31;97524.19;;;15.96;55.26
7802;BME280;3945;48.952;9.506;2023-02-22T13:05:00;97524.56;;;15.85;55.21
7802;BME280;3945;48.952;9.506;2023-02-22T13:07:31;97519.53;;;15.78;56.37
7802;BME280;3945;48.952;9.506;2023-02-22T13:10:02;97519.59;;;15.73;55.91
7802;BME280;3945;48.952;9.506;2023-02-22T13:12:34;97526.97;;;15.63;55.71
7802;BME280;3945;48.952;9.506;2023-02-22T13:15:05;97521.63;;;15.57;55.69
7802;BME280;3945;48.952;9.506;2023-02-22T13:17:36;97509.03;;;15.58;56.32
7802;BME280;3945;48.952;9.506;2023-02-22T13:20:11;97515.47;;;15.57;56.56
7802;BME280;3945;48.952;9.506;2023-02-22T13:22:41;97507.13;;;15.58;55.75
7802;BME280;3945;48.952;9.506;2023-02-22T13:25:11;97519.25;;;15.56;55.41
7802;BME280;3945;48.952;9.506;2023-02-22T13:27:40;97510.94;;;15.52;55.18
7802;BME280;3945;48.952;9.506;2023-02-22T13:30:13;97503.44;;;15.49;54.58
7802;BME280;3945;48.952;9.506;2023-02-22T13:32:47;97505.91;;;15.46;55.09
7802;BME280;3945;48.952;9.506;2023-02-22T13:35:21;97517.69;;;15.45;55.09
7802;BME280;3945;48.952;9.506;2023-02-22T13:37:57;97507.44;;;15.52;56.14
7802;BME280;3945;48.952;9.506;2023-02-22T13:43:24;97513.03;;;15.60;54.98
7802;BME280;3945;48.952;9.506;2023-02-22T13:48:40;97500.75;;;15.78;54.89